sensor_id;sensor_type;location;lat;lon;timestamp;temperature;humidity
12815;DHT22;6472;52.328;13.070;2023-04-06T00:02:14;-2.10;99.90
12815;DHT22;6472;52.328;13.070;2023-04-06T00:04:43;-2.10;99.90
12815;DHT22;6472;52.328;13.070;2023-04-06T00:07:12;-2.10;99.90
12815;DHT22;6472;52.328;13.070;2023-04-06T00:09:40;-2.10;99.90
12815;DHT22;6472;52.328;13.070;2023-04-06T00:12:08;-2.20;99.90
12815;DHT22;6472;52.328;13.070;2023-04-06T00:14:36;-2.20;99.90
12815;DHT22;6472;52.328;13.070;2023-04-06T00:17:04;-2.30;99.90
12815;DHT22;6472;52.328;13.070;2023-04-06T00:19:32;-2.30;99.90
12815;DHT22;6472;52.328;13.070;2023-04-06T00:22:01;-2.30;99.90
12815;DHT22;6472;52.328;13.070;2023-04-06T00:24:30;-2.30;99.90
12815;DHT22;6472;52.328;13.070;2023-04-06T00:26:58;-2.30;99.90
12815;DHT22;6472;52.328;13.070;2023-04-06T00:29:26;-2.40;99.90
12815;DHT22;6472;52.328;13.070;2023-04-06T00:31:54;-2.40;99.90
12815;DHT22;6472;52.328;13.070;2023-04-06T00:34:22;-2.50;99.90
12815;DHT22;6472;52.328;13.070;2023-04-06T00:36:50;-2.50;99.90
12815;DHT22;6472;52.328;13.070;2023-04-06T00:39:20;-2.50;99.90
12815;DHT22;6472;52.328;13.070;2023-04-06T00:41:51;-2.50;99.90
12815;DHT22;6472;52.328;13.070;2023-04-06T00:44:20;-2.50;99.90
12815;DHT22;6472;52.328;13.070;2023-04-06T00:46:49;-2.50;99.90
12815;DHT22;6472;52.328;13.070;2023-04-06T00:49:17;-2.50;99.90
12815;DHT22;6472;52.328;13.070;2023-04-06T00:51:45;-2.50;99.90
12815;DHT22;6472;52.328;13.070;2023-04-06T00:54:14;-2.50;99.90
12815;DHT22;6472;52.328;13.070;2023-04-06T00:56:43;-2.60;99.90
12815;DHT22;6472;52.328;13.070;2023-04-06T00:59:11;-2.60;99.90
12815;DHT22;6472;52.328;13.070;2023-04-06T01:01:39;-2.60;99.90
12815;DHT22;6472;52.328;13.070;2023-04-06T01:04:08;-2.70;99.90
12815;DHT22;6472;52.328;13.070;2023-04-06T01:06:36;-2.70;99.90
12815;DHT22;6472;52.328;13.070;2023-04-06T01:09:04;-2.70;99.90
12815;DHT22;6472;52.328;13.070;2023-04-06T01:11:32;-2.80;99.90
12815;DHT22;6472;52.328;13.070;2023-04-06T01:14:03;-2.80;99.90
12815;DHT22;6472;52.328;13.070;2023-04-06T01:16:31;-2.80;99.90
12815;DHT22;6472;52.328;13.070;2023-04-06T01:18:59;-2.80;99.90
12815;DHT22;6472;52.328;13.070;2023-04-06T01:21:27;-2.80;99.90
12815;DHT22;6472;52.328;13.070;2023-04-06T01:23:57;-2.90;99.90
12815;DHT22;6472;52.328;13.070;2023-04-06T01:26:25;-2.90;99.90
12815;DHT22;6472;52.328;13.070;2023-04-06T01:28:53;-3.00;99.90
12815;DHT22;6472;52.328;13.070;2023-04-06T01:31:22;-3.00;99.90
12815;DHT22;6472;52.328;13.070;2023-04-06T01:33:51;-3.00;99.90
12815;DHT22;6472;52.328;13.070;2023-04-06T01:36:19;-3.00;99.90
12815;DHT22;6472;52.328;13.070;2023-04-06T01:38:47;-3.00;99.90
12815;DHT22;6472;52.328;13.070;2023-04-06T01:41:16;-3.10;99.90
12815;DHT22;6472;52.328;13.070;2023-04-06T01:43:45;-3.10;99.90
12815;DHT22;6472;52.328;13.070;2023-04-06T01:46:13;-3.20;99.90
12815;DHT22;6472;52.328;13.070;2023-04-06T01:48:41;-3.20;99.90
12815;DHT22;6472;52.328;13.070;2023-04-06T01:51:09;-3.20;99.90
12815;DHT22;6472;52.328;13.070;2023-04-06T01:53:37;-3.20;99.90
12815;DHT22;6472;52.328;13.070;2023-04-06T01:56:05;-3.20;99.90
12815;DHT22;6472;52.328;13.070;2023-04-06T01:58:35;-3.20;99.90
12815;DHT22;6472;52.328;13.070;2023-04-06T02:01:03;-3.30;99.90
12815;DHT22;6472;52.328;13.070;2023-04-06T02:03:31;-3.30;99.90
12815;DHT22;6472;52.328;13.070;2023-04-06T02:05:59;-3.30;99.90
12815;DHT22;6472;52.328;13.070;2023-04-06T02:08:27;-3.30;99.90
12815;DHT22;6472;52.328;13.070;2023-04-06T02:10:55;-3.30;99.90
12815;DHT22;6472;52.328;13.070;2023-04-06T02:13:23;-3.30;99.90
12815;DHT22;6472;52.328;13.070;2023-04-06T02:15:53;-3.30;99.90
12815;DHT22;6472;52.328;13.070;2023-04-06T02:18:21;-3.30;99.90
12815;DHT22;6472;52.328;13.070;2023-04-06T02:20:49;-3.30;99.90
12815;DHT22;6472;52.328;13.070;2023-04-06T02:23:17;-3.30;99.90
12815;DHT22;6472;52.328;13.070;2023-04-06T02:25:45;-3.40;99.90
12815;DHT22;6472;52.328;13.070;2023-04-06T02:28:13;-3.40;99.90
12815;DHT22;6472;52.328;13.070;2023-04-06T02:30:41;-3.40;99.90
12815;DHT22;6472;52.328;13.070;2023-04-06T02:33:11;-3.40;99.90
12815;DHT22;6472;52.328;13.070;2023-04-06T02:35:39;-3.40;99.90
12815;DHT22;6472;52.328;13.070;2023-04-06T02:38:07;-3.40;99.90
12815;DHT22;6472;52.328;13.070;2023-04-06T02:40:35;-3.50;99.90
12815;DHT22;6472;52.328;13.070;2023-04-06T02:43:02;-3.40;99.90
12815;DHT22;6472;52.328;13.070;2023-04-06T02:45:30;-3.50;99.90
12815;DHT22;6472;52.328;13.070;2023-04-06T02:47:59;-3.50;99.90
12815;DHT22;6472;52.328;13.070;2023-04-06T02:50:28;-3.50;99.90
12815;DHT22;6472;52.328;13.070;2023-04-06T02:52:56;-3.50;99.90
12815;DHT22;6472;52.328;13.070;2023-04-06T02:55:24;-3.50;99.90
12815;DHT22;6472;52.328;13.070;2023-04-06T02:57:52;-3.50;99.90
12815;DHT22;6472;52.328;13.070;2023-04-06T03:00:20;-3.50;99.90
12815;DHT22;6472;52.328;13.070;2023-04-06T03:02:48;-3.60;99.90
12815;DHT22;6472;52.328;13.070;2023-04-06T03:05:16;-3.60;99.90
12815;DHT22;6472;52.328;13.070;2023-04-06T03:07:46;-3.60;99.90
12815;DHT22;6472;52.328;13.070;2023-04-06T03:10:14;-3.60;99.90
12815;DHT22;6472;52.328;13.070;2023-04-06T03:12:42;-3.60;99.90
12815;DHT22;6472;52.328;13.070;2023-04-06T03:15:10;-3.70;99.90
12815;DHT22;6472;52.328;13.070;2023-04-06T03:17:38;-3.70;99.90
12815;DHT22;6472;52.328;13.070;2023-04-06T03:20:07;-3.70;99.90
12815;DHT22;6472;52.328;13.070;2023-04-06T03:22:35;-3.70;99.90
12815;DHT22;6472;52.328;13.070;2023-04-06T03:25:05;-3.80;99.90
12815;DHT22;6472;52.328;13.070;2023-04-06T03:27:33;-3.80;99.90
12815;DHT22;6472;52.328;13.070;2023-04-06T03:30:01;-3.80;99.90
12815;DHT22;6472;52.328;13.070;2023-04-06T03:32:29;-3.80;99.90
12815;DHT22;6472;52.328;13.070;2023-04-06T03:34:58;-3.90;99.90
12815;DHT22;6472;52.328;13.070;2023-04-06T03:37:26;-3.80;99.90
12815;DHT22;6472;52.328;13.070;2023-04-06T03:39:53;-3.90;99.90
12815;DHT22;6472;52.328;13.070;2023-04-06T03:42:23;-3.90;99.90
12815;DHT22;6472;52.328;13.070;2023-04-06T03:44:51;-3.90;99.90
12815;DHT22;6472;52.328;13.070;2023-04-06T03:47:19;-3.90;99.90
12815;DHT22;6472;52.328;13.070;2023-04-06T03:49:47;-3.90;99.90
12815;DHT22;6472;52.328;13.070;2023-04-06T03:52:15;-3.90;99.90
12815;DHT22;6472;52.328;13.070;2023-04-06T03:54:43;-3.90;99.90
12815;DHT22;6472;52.328;13.070;2023-04-06T03:57:11;-4.00;99.90
12815;DHT22;6472;52.328;13.070;2023-04-06T03:59:41;-4.00;99.90
12815;DHT22;6472;52.328;13.070;2023-04-06T04:02:09;-4.00;99.90
12815;DHT22;6472;52.328;13.070;2023-04-06T04:04:38;-4.00;99.90
12815;DHT22;6472;52.328;13.070;2023-04-06T04:07:08;-4.10;99.90
12815;DHT22;6472;52.328;13.070;2023-04-06T04:09:37;-4.00;99.90
12815;DHT22;6472;52.328;13.070;2023-04-06T04:12:05;-4.10;99.90
12815;DHT22;6472;52.328;13.070;2023-04-06T04:14:33;-4.10;99.90
12815;DHT22;6472;52.328;13.070;2023-04-06T04:17:02;-4.10;99.90
12815;DHT22;6472;52.328;13.070;2023-04-06T04:19:30;-4.10;99.90
12815;DHT22;6472;52.328;13.070;2023-04-06T04:21:58;-4.20;99.90
12815;DHT22;6472;52.328;13.070;2023-04-06T04:24:26;-4.20;99.90
12815;DHT22;6472;52.328;13.070;2023-04-06T04:26:54;-4.20;99.90
12815;DHT22;6472;52.328;13.070;2023-04-06T04:29:22;-4.20;99.90
12815;DHT22;6472;52.328;13.070;2023-04-06T04:31:50;-4.10;99.90
12815;DHT22;6472;52.328;13.070;2023-04-06T04:34:20;-4.10;99.90
12815;DHT22;6472;52.328;13.070;2023-04-06T04:36:50;-4.10;99.90
12815;DHT22;6472;52.328;13.070;2023-04-06T04:39:18;-4.10;99.90
12815;DHT22;6472;52.328;13.070;2023-04-06T04:41:47;-4.10;99.90
12815;DHT22;6472;52.328;13.070;2023-04-06T04:44:15;-4.10;99.90
12815;DHT22;6472;52.328;13.070;2023-04-06T04:46:43;-4.10;99.90
12815;DHT22;6472;52.328;13.070;2023-04-06T04:49:11;-4.10;99.90
12815;DHT22;6472;52.328;13.070;2023-04-06T04:51:41;-4.00;99.90
12815;DHT22;6472;52.328;13.070;2023-04-06T04:54:09;-4.00;99.90
12815;DHT22;6472;52.328;13.070;2023-04-06T04:56:37;-4.00;99.90
12815;DHT22;6472;52.328;13.070;2023-04-06T04:59:05;-4.00;99.90
12815;DHT22;6472;52.328;13.070;2023-04-06T05:01:33;-4.00;99.90
12815;DHT22;6472;52.328;13.070;2023-04-06T05:04:20;-4.00;99.90
12815;DHT22;6472;52.328;13.070;2023-04-06T05:06:50;-4.00;99.90
12815;DHT22;6472;52.328;13.070;2023-04-06T05:09:18;-3.90;99.90
12815;DHT22;6472;52.328;13.070;2023-04-06T05:11:46;-3.80;99.90
12815;DHT22;6472;52.328;13.070;2023-04-06T05:14:14;-3.80;99.90
12815;DHT22;6472;52.328;13.070;2023-04-06T05:16:42;-3.70;99.90
12815;DHT22;6472;52.328;13.070;2023-04-06T05:19:10;-3.60;99.90
12815;DHT22;6472;52.328;13.070;2023-04-06T05:21:38;-3.50;99.90
12815;DHT22;6472;52.328;13.070;2023-04-06T05:24:08;-3.40;99.90
12815;DHT22;6472;52.328;13.070;2023-04-06T05:26:36;-3.30;99.90
12815;DHT22;6472;52.328;13.070;2023-04-06T05:29:04;-3.20;99.90
12815;DHT22;6472;52.328;13.070;2023-04-06T05:31:32;-2.90;99.90
12815;DHT22;6472;52.328;13.070;2023-04-06T05:34:01;-2.90;99.90
12815;DHT22;6472;52.328;13.070;2023-04-06T05:36:29;-2.50;99.90
12815;DHT22;6472;52.328;13.070;2023-04-06T05:38:58;-1.20;99.90
12815;DHT22;6472;52.328;13.070;2023-04-06T05:41:28;-0.50;99.90
12815;DHT22;6472;52.328;13.070;2023-04-06T05:43:56;-0.40;99.90
12815;DHT22;6472;52.328;13.070;2023-04-06T05:46:24;0.50;99.90
12815;DHT22;6472;52.328;13.070;2023-04-06T05:48:52;1.20;99.90
12815;DHT22;6472;52.328;13.070;2023-04-06T05:51:20;1.50;99.90
12815;DHT22;6472;52.328;13.070;2023-04-06T05:53:48;1.60;99.90
12815;DHT22;6472;52.328;13.070;2023-04-06T05:56:17;1.40;99.90
12815;DHT22;6472;52.328;13.070;2023-04-06T05:58:46;1.10;99.90
12815;DHT22;6472;52.328;13.070;2023-04-06T06:01:14;0.90;99.90
12815;DHT22;6472;52.328;13.070;2023-04-06T06:03:43;0.80;99.90
12815;DHT22;6472;52.328;13.070;2023-04-06T06:06:11;0.70;99.90
12815;DHT22;6472;52.328;13.070;2023-04-06T06:08:39;0.70;99.90
12815;DHT22;6472;52.328;13.070;2023-04-06T06:11:08;0.70;99.90
12815;DHT22;6472;52.328;13.070;2023-04-06T06:13:36;0.60;99.90
12815;DHT22;6472;52.328;13.070;2023-04-06T06:16:06;0.60;99.90
12815;DHT22;6472;52.328;13.070;2023-04-06T06:18:34;0.60;99.90
12815;DHT22;6472;52.328;13.070;2023-04-06T06:21:03;0.70;99.90
12815;DHT22;6472;52.328;13.070;2023-04-06T06:23:31;0.70;99.90
12815;DHT22;6472;52.328;13.070;2023-04-06T06:26:00;0.80;99.90
12815;DHT22;6472;52.328;13.070;2023-04-06T06:28:28;0.90;99.90
12815;DHT22;6472;52.328;13.070;2023-04-06T06:30:56;0.90;99.90
12815;DHT22;6472;52.328;13.070;2023-04-06T06:33:26;1.00;99.90
12815;DHT22;6472;52.328;13.070;2023-04-06T06:35:55;1.20;99.90
12815;DHT22;6472;52.328;13.070;2023-04-06T06:38:23;1.30;99.90
12815;DHT22;6472;52.328;13.070;2023-04-06T06:40:51;1.50;99.90
12815;DHT22;6472;52.328;13.070;2023-04-06T06:43:19;1.60;99.90
12815;DHT22;6472;52.328;13.070;2023-04-06T06:45:47;1.80;99.90
12815;DHT22;6472;52.328;13.070;2023-04-06T06:48:16;2.00;99.90
12815;DHT22;6472;52.328;13.070;2023-04-06T06:50:47;2.10;99.90
12815;DHT22;6472;52.328;13.070;2023-04-06T06:53:15;2.30;99.90
12815;DHT22;6472;52.328;13.070;2023-04-06T06:55:43;2.50;99.90
12815;DHT22;6472;52.328;13.070;2023-04-06T06:58:11;2.60;99.90
12815;DHT22;6472;52.328;13.070;2023-04-06T07:00:40;2.70;99.90
12815;DHT22;6472;52.328;13.070;2023-04-06T07:03:09;2.90;99.90
12815;DHT22;6472;52.328;13.070;2023-04-06T07:05:37;3.10;99.90
12815;DHT22;6472;52.328;13.070;2023-04-06T07:08:08;3.40;99.90
12815;DHT22;6472;52.328;13.070;2023-04-06T07:10:36;3.60;99.90
12815;DHT22;6472;52.328;13.070;2023-04-06T07:13:04;3.70;99.90
12815;DHT22;6472;52.328;13.070;2023-04-06T07:15:32;4.00;99.90
12815;DHT22;6472;52.328;13.070;2023-04-06T07:18:00;4.20;99.90
12815;DHT22;6472;52.328;13.070;2023-04-06T07:20:29;4.50;99.90
12815;DHT22;6472;52.328;13.070;2023-04-06T07:22:56;4.90;99.90
12815;DHT22;6472;52.328;13.070;2023-04-06T07:25:26;5.20;99.90
12815;DHT22;6472;52.328;13.070;2023-04-06T07:27:54;5.60;99.90
12815;DHT22;6472;52.328;13.070;2023-04-06T07:30:22;6.10;99.90
12815;DHT22;6472;52.328;13.070;2023-04-06T07:32:52;6.90;99.90
12815;DHT22;6472;52.328;13.070;2023-04-06T07:35:22;7.60;99.90
12815;DHT22;6472;52.328;13.070;2023-04-06T07:37:51;8.10;99.90
12815;DHT22;6472;52.328;13.070;2023-04-06T07:40:19;8.40;99.90
12815;DHT22;6472;52.328;13.070;2023-04-06T07:42:48;8.70;99.90
12815;DHT22;6472;52.328;13.070;2023-04-06T07:45:17;9.00;99.10
12815;DHT22;6472;52.328;13.070;2023-04-06T07:47:45;9.30;98.60
12815;DHT22;6472;52.328;13.070;2023-04-06T07:52:47;10.10;94.40
12815;DHT22;6472;52.328;13.070;2023-04-06T07:55:15;10.50;91.00
12815;DHT22;6472;52.328;13.070;2023-04-06T07:57:42;10.80;90.70
12815;DHT22;6472;52.328;13.070;2023-04-06T08:00:13;11.00;87.80
12815;DHT22;6472;52.328;13.070;2023-04-06T08:02:41;11.00;85.70
12815;DHT22;6472;52.328;13.070;2023-04-06T08:05:09;11.40;85.20
12815;DHT22;6472;52.328;13.070;2023-04-06T08:07:37;11.30;82.00
12815;DHT22;6472;52.328;13.070;2023-04-06T08:10:06;11.50;83.20
12815;DHT22;6472;52.328;13.070;2023-04-06T08:12:34;11.90;81.70
12815;DHT22;6472;52.328;13.070;2023-04-06T08:15:03;12.20;80.80
12815;DHT22;6472;52.328;13.070;2023-04-06T08:17:33;12.70;73.00
12815;DHT22;6472;52.328;13.070;2023-04-06T08:20:02;13.20;70.10
12815;DHT22;6472;52.328;13.070;2023-04-06T08:22:30;13.50;67.10
12815;DHT22;6472;52.328;13.070;2023-04-06T08:24:59;13.70;63.30
12815;DHT22;6472;52.328;13.070;2023-04-06T08:27:27;13.50;62.60
12815;DHT22;6472;52.328;13.070;2023-04-06T08:29:55;13.40;59.70
12815;DHT22;6472;52.328;13.070;2023-04-06T08:32:23;13.40;61.20
12815;DHT22;6472;52.328;13.070;2023-04-06T08:34:54;13.80;58.10
12815;DHT22;6472;52.328;13.070;2023-04-06T08:37:23;13.70;58.90
12815;DHT22;6472;52.328;13.070;2023-04-06T08:39:51;13.90;58.90
12815;DHT22;6472;52.328;13.070;2023-04-06T08:42:20;14.30;57.80
12815;DHT22;6472;52.328;13.070;2023-04-06T08:44:49;14.50;56.20
12815;DHT22;6472;52.328;13.070;2023-04-06T08:47:18;14.70;56.30
12815;DHT22;6472;52.328;13.070;2023-04-06T08:49:51;14.90;55.80
12815;DHT22;6472;52.328;13.070;2023-04-06T08:52:20;15.20;55.20
12815;DHT22;6472;52.328;13.070;2023-04-06T08:54:49;15.30;51.30
12815;DHT22;6472;52.328;13.070;2023-04-06T08:57:18;15.10;51.00
12815;DHT22;6472;52.328;13.070;2023-04-06T08:59:47;14.10;52.10
12815;DHT22;6472;52.328;13.070;2023-04-06T09:02:17;14.40;52.70
12815;DHT22;6472;52.328;13.070;2023-04-06T09:04:46;14.60;53.30
12815;DHT22;6472;52.328;13.070;2023-04-06T09:07:15;14.80;52.60
12815;DHT22;6472;52.328;13.070;2023-04-06T09:09:45;14.80;51.70
12815;DHT22;6472;52.328;13.070;2023-04-06T09:12:25;14.90;51.60
12815;DHT22;6472;52.328;13.070;2023-04-06T09:14:54;15.10;52.10
12815;DHT22;6472;52.328;13.070;2023-04-06T09:17:24;14.80;50.20
12815;DHT22;6472;52.328;13.070;2023-04-06T09:19:53;14.40;49.90
12815;DHT22;6472;52.328;13.070;2023-04-06T09:22:22;14.40;52.00
12815;DHT22;6472;52.328;13.070;2023-04-06T09:24:53;14.30;53.20
12815;DHT22;6472;52.328;13.070;2023-04-06T09:27:30;14.70;50.90
12815;DHT22;6472;52.328;13.070;2023-04-06T09:30:09;14.20;47.70
12815;DHT22;6472;52.328;13.070;2023-04-06T09:32:47;14.40;50.00
12815;DHT22;6472;52.328;13.070;2023-04-06T09:35:16;13.90;47.50
12815;DHT22;6472;52.328;13.070;2023-04-06T09:37:47;13.90;47.30
12815;DHT22;6472;52.328;13.070;2023-04-06T09:40:16;14.10;49.00
12815;DHT22;6472;52.328;13.070;2023-04-06T09:42:47;14.10;48.40
12815;DHT22;6472;52.328;13.070;2023-04-06T09:45:15;14.30;48.90
12815;DHT22;6472;52.328;13.070;2023-04-06T09:47:44;14.00;49.90
12815;DHT22;6472;52.328;13.070;2023-04-06T09:50:14;13.90;51.20
12815;DHT22;6472;52.328;13.070;2023-04-06T09:52:47;13.80;48.90
12815;DHT22;6472;52.328;13.070;2023-04-06T09:55:23;13.60;46.90
12815;DHT22;6472;52.328;13.070;2023-04-06T09:57:57;13.70;49.60
12815;DHT22;6472;52.328;13.070;2023-04-06T10:00:26;13.60;50.50
12815;DHT22;6472;52.328;13.070;2023-04-06T10:02:59;13.50;49.40
12815;DHT22;6472;52.328;13.070;2023-04-06T10:05:37;13.60;47.80
12815;DHT22;6472;52.328;13.070;2023-04-06T10:08:10;12.70;48.10
12815;DHT22;6472;52.328;13.070;2023-04-06T10:10:40;12.80;51.60
12815;DHT22;6472;52.328;13.070;2023-04-06T10:13:10;13.20;53.50
12815;DHT22;6472;52.328;13.070;2023-04-06T10:15:39;13.50;48.40
12815;DHT22;6472;52.328;13.070;2023-04-06T10:18:07;13.10;50.10
12815;DHT22;6472;52.328;13.070;2023-04-06T10:20:41;13.40;49.80
12815;DHT22;6472;52.328;13.070;2023-04-06T10:23:12;13.40;48.00
12815;DHT22;6472;52.328;13.070;2023-04-06T10:25:54;13.30;45.80
12815;DHT22;6472;52.328;13.070;2023-04-06T10:28:23;13.00;47.50
12815;DHT22;6472;52.328;13.070;2023-04-06T10:30:57;13.00;49.20
12815;DHT22;6472;52.328;13.070;2023-04-06T10:33:25;13.30;49.00
12815;DHT22;6472;52.328;13.070;2023-04-06T10:35:53;13.10;45.90
12815;DHT22;6472;52.328;13.070;2023-04-06T10:38:33;12.90;44.80
12815;DHT22;6472;52.328;13.070;2023-04-06T10:41:09;12.80;48.00
12815;DHT22;6472;52.328;13.070;2023-04-06T10:43:38;12.40;46.30
12815;DHT22;6472;52.328;13.070;2023-04-06T10:46:08;12.10;48.70
12815;DHT22;6472;52.328;13.070;2023-04-06T10:48:37;12.20;49.50
12815;DHT22;6472;52.328;13.070;2023-04-06T10:51:11;12.40;47.90
12815;DHT22;6472;52.328;13.070;2023-04-06T10:53:41;12.20;47.20
12815;DHT22;6472;52.328;13.070;2023-04-06T10:56:13;12.20;49.60
12815;DHT22;6472;52.328;13.070;2023-04-06T10:58:44;12.30;46.90
12815;DHT22;6472;52.328;13.070;2023-04-06T11:01:14;11.90;47.80
12815;DHT22;6472;52.328;13.070;2023-04-06T11:03:43;12.00;48.20
12815;DHT22;6472;52.328;13.070;2023-04-06T11:06:18;12.10;47.60
12815;DHT22;6472;52.328;13.070;2023-04-06T11:08:46;12.10;46.30
12815;DHT22;6472;52.328;13.070;2023-04-06T11:11:17;12.30;48.90
12815;DHT22;6472;52.328;13.070;2023-04-06T11:13:49;12.50;49.10
12815;DHT22;6472;52.328;13.070;2023-04-06T11:16:19;12.70;47.70
12815;DHT22;6472;52.328;13.070;2023-04-06T11:18:52;12.50;46.40
12815;DHT22;6472;52.328;13.070;2023-04-06T11:21:33;12.40;47.10
12815;DHT22;6472;52.328;13.070;2023-04-06T11:24:06;12.50;48.70
12815;DHT22;6472;52.328;13.070;2023-04-06T11:26:41;12.70;49.00
12815;DHT22;6472;52.328;13.070;2023-04-06T11:29:10;12.80;47.90
12815;DHT22;6472;52.328;13.070;2023-04-06T11:31:40;12.70;44.20
12815;DHT22;6472;52.328;13.070;2023-04-06T11:34:12;12.50;47.80
12815;DHT22;6472;52.328;13.070;2023-04-06T11:36:42;12.70;48.50
12815;DHT22;6472;52.328;13.070;2023-04-06T11:39:11;12.80;47.30
12815;DHT22;6472;52.328;13.070;2023-04-06T11:41:40;13.00;47.90
12815;DHT22;6472;52.328;13.070;2023-04-06T11:44:08;12.80;45.20
12815;DHT22;6472;52.328;13.070;2023-04-06T11:46:37;12.90;46.70
12815;DHT22;6472;52.328;13.070;2023-04-06T11:49:05;12.80;47.20
12815;DHT22;6472;52.328;13.070;2023-04-06T11:51:36;12.70;46.00
12815;DHT22;6472;52.328;13.070;2023-04-06T11:54:04;12.70;47.60
12815;DHT22;6472;52.328;13.070;2023-04-06T11:56:32;12.70;49.20
12815;DHT22;6472;52.328;13.070;2023-04-06T11:59:01;12.80;46.40
12815;DHT22;6472;52.328;13.070;2023-04-06T12:01:30;12.80;49.30
12815;DHT22;6472;52.328;13.070;2023-04-06T12:04:04;12.80;46.90
12815;DHT22;6472;52.328;13.070;2023-04-06T12:06:33;12.70;46.10
12815;DHT22;6472;52.328;13.070;2023-04-06T12:09:02;12.50;47.00
12815;DHT22;6472;52.328;13.070;2023-04-06T12:11:30;12.60;46.40
12815;DHT22;6472;52.328;13.070;2023-04-06T12:13:58;12.70;47.50
12815;DHT22;6472;52.328;13.070;2023-04-06T12:16:29;12.80;48.00
12815;DHT22;6472;52.328;13.070;2023-04-06T12:18:57;12.30;49.00
12815;DHT22;6472;52.328;13.070;2023-04-06T12:21:26;12.10;48.00
12815;DHT22;6472;52.328;13.070;2023-04-06T12:23:54;12.00;49.00
12815;DHT22;6472;52.328;13.070;2023-04-06T12:26:23;12.10;49.40
12815;DHT22;6472;52.328;13.070;2023-04-06T12:28:51;12.30;48.90
12815;DHT22;6472;52.328;13.070;2023-04-06T12:31:21;12.50;48.40
12815;DHT22;6472;52.328;13.070;2023-04-06T12:33:51;12.80;48.70
12815;DHT22;6472;52.328;13.070;2023-04-06T12:36:20;13.00;49.30
12815;DHT22;6472;52.328;13.070;2023-04-06T12:38:48;13.00;47.00
12815;DHT22;6472;52.328;13.070;2023-04-06T12:41:17;13.00;45.80
12815;DHT22;6472;52.328;13.070;2023-04-06T12:43:45;12.90;45.40
12815;DHT22;6472;52.328;13.070;2023-04-06T12:46:14;12.70;47.00
12815;DHT22;6472;52.328;13.070;2023-04-06T12:48:42;12.60;46.40
12815;DHT22;6472;52.328;13.070;2023-04-06T12:51:11;12.70;48.20
12815;DHT22;6472;52.328;13.070;2023-04-06T12:53:40;13.00;48.80
12815;DHT22;6472;52.328;13.070;2023-04-06T12:56:12;13.10;46.10
12815;DHT22;6472;52.328;13.070;2023-04-06T12:58:41;13.10;47.10
12815;DHT22;6472;52.328;13.070;2023-04-06T13:01:09;13.20;45.80
12815;DHT22;6472;52.328;13.070;2023-04-06T13:03:40;13.00;47.80
12815;DHT22;6472;52.328;13.070;2023-04-06T13:06:10;13.00;46.80
12815;DHT22;6472;52.328;13.070;2023-04-06T13:08:39;12.90;47.60
12815;DHT22;6472;52.328;13.070;2023-04-06T13:11:08;13.10;48.90
12815;DHT22;6472;52.328;13.070;2023-04-06T13:13:37;13.00;45.60
12815;DHT22;6472;52.328;13.070;2023-04-06T13:16:07;12.80;48.10
12815;DHT22;6472;52.328;13.070;2023-04-06T13:18:36;12.90;48.50
12815;DHT22;6472;52.328;13.070;2023-04-06T13:21:06;12.90;45.70
12815;DHT22;6472;52.328;13.070;2023-04-06T13:23:35;12.80;45.30
12815;DHT22;6472;52.328;13.070;2023-04-06T13:26:04;12.80;47.10
12815;DHT22;6472;52.328;13.070;2023-04-06T13:28:35;12.90;47.40
12815;DHT22;6472;52.328;13.070;2023-04-06T13:31:05;13.00;48.10
12815;DHT22;6472;52.328;13.070;2023-04-06T13:33:33;12.90;46.70
12815;DHT22;6472;52.328;13.070;2023-04-06T13:36:02;12.80;47.50
12815;DHT22;6472;52.328;13.070;2023-04-06T13:38:31;12.80;47.50
12815;DHT22;6472;52.328;13.070;2023-04-06T13:41:01;12.70;46.40
12815;DHT22;6472;52.328;13.070;2023-04-06T13:43:29;12.60;48.50
12815;DHT22;6472;52.328;13.070;2023-04-06T13:45:57;12.50;46.80
12815;DHT22;6472;52.328;13.070;2023-04-06T13:48:27;12.40;47.30
12815;DHT22;6472;52.328;13.070;2023-04-06T13:50:55;12.50;47.90
12815;DHT22;6472;52.328;13.070;2023-04-06T13:53:24;12.40;47.70
12815;DHT22;6472;52.328;13.070;2023-04-06T13:55:53;12.30;48.40
12815;DHT22;6472;52.328;13.070;2023-04-06T13:58:23;12.30;47.00
12815;DHT22;6472;52.328;13.070;2023-04-06T14:00:51;12.20;48.90
12815;DHT22;6472;52.328;13.070;2023-04-06T14:03:19;12.20;48.00
12815;DHT22;6472;52.328;13.070;2023-04-06T14:05:48;12.10;47.30
12815;DHT22;6472;52.328;13.070;2023-04-06T14:08:16;11.90;47.60
12815;DHT22;6472;52.328;13.070;2023-04-06T14:10:44;11.80;48.50
12815;DHT22;6472;52.328;13.070;2023-04-06T14:13:12;11.80;47.80
12815;DHT22;6472;52.328;13.070;2023-04-06T14:15:41;11.90;48.60
12815;DHT22;6472;52.328;13.070;2023-04-06T14:18:09;11.80;48.10
12815;DHT22;6472;52.328;13.070;2023-04-06T14:20:38;11.80;49.70
12815;DHT22;6472;52.328;13.070;2023-04-06T14:23:06;12.00;49.30
12815;DHT22;6472;52.328;13.070;2023-04-06T14:25:34;12.00;50.40
12815;DHT22;6472;52.328;13.070;2023-04-06T14:28:03;12.10;49.40
12815;DHT22;6472;52.328;13.070;2023-04-06T14:30:31;12.20;50.30
12815;DHT22;6472;52.328;13.070;2023-04-06T14:33:00;12.30;48.80
12815;DHT22;6472;52.328;13.070;2023-04-06T14:35:29;12.20;48.80
12815;DHT22;6472;52.328;13.070;2023-04-06T14:37:59;12.20;48.00
12815;DHT22;6472;52.328;13.070;2023-04-06T14:40:28;12.10;48.20
12815;DHT22;6472;52.328;13.070;2023-04-06T14:42:56;12.00;48.00
12815;DHT22;6472;52.328;13.070;2023-04-06T14:45:24;11.90;50.20
12815;DHT22;6472;52.328;13.070;2023-04-06T14:47:52;12.00;49.40
12815;DHT22;6472;52.328;13.070;2023-04-06T14:50:22;12.00;49.90
12815;DHT22;6472;52.328;13.070;2023-04-06T14:52:50;12.00;49.40
12815;DHT22;6472;52.328;13.070;2023-04-06T14:55:18;11.80;48.20
12815;DHT22;6472;52.328;13.070;2023-04-06T14:57:46;11.90;48.60
12815;DHT22;6472;52.328;13.070;2023-04-06T15:00:15;11.70;49.20
12815;DHT22;6472;52.328;13.070;2023-04-06T15:02:43;11.50;49.30
12815;DHT22;6472;52.328;13.070;2023-04-06T15:05:11;11.40;50.30
12815;DHT22;6472;52.328;13.070;2023-04-06T15:07:41;11.40;49.60
12815;DHT22;6472;52.328;13.070;2023-04-06T15:10:10;11.40;50.60
12815;DHT22;6472;52.328;13.070;2023-04-06T15:12:38;11.20;50.30
12815;DHT22;6472;52.328;13.070;2023-04-06T15:15:07;11.10;49.60
12815;DHT22;6472;52.328;13.070;2023-04-06T15:17:35;11.10;49.50
12815;DHT22;6472;52.328;13.070;2023-04-06T15:20:04;11.20;49.00
12815;DHT22;6472;52.328;13.070;2023-04-06T15:22:33;11.10;49.20
12815;DHT22;6472;52.328;13.070;2023-04-06T15:25:03;11.10;50.80
12815;DHT22;6472;52.328;13.070;2023-04-06T15:27:31;11.10;51.00
12815;DHT22;6472;52.328;13.070;2023-04-06T15:30:00;11.10;50.50
12815;DHT22;6472;52.328;13.070;2023-04-06T15:32:28;11.00;51.50
12815;DHT22;6472;52.328;13.070;2023-04-06T15:34:57;11.00;50.20
12815;DHT22;6472;52.328;13.070;2023-04-06T15:37:25;11.00;50.80
12815;DHT22;6472;52.328;13.070;2023-04-06T15:39:54;11.00;51.30
12815;DHT22;6472;52.328;13.070;2023-04-06T15:42:37;11.00;49.50
12815;DHT22;6472;52.328;13.070;2023-04-06T15:45:06;10.80;50.60
12815;DHT22;6472;52.328;13.070;2023-04-06T15:47:34;10.80;49.30